sensor_id;sensor_type;location;lat;lon;timestamp;P1;durP1;ratioP1;P2;durP2;ratioP2
45322;SDS011;31382;50.200;8.674;2023-04-08T00:02:16;3.65;;;2.50;;
45322;SDS011;31382;50.200;8.674;2023-04-08T00:07:18;5.22;;;4.00;;
45322;SDS011;31382;50.200;8.674;2023-04-08T00:12:19;8.20;;;4.78;;
45322;SDS011;31382;50.200;8.674;2023-04-08T00:17:21;8.30;;;5.20;;
45322;SDS011;31382;50.200;8.674;2023-04-08T00:22:22;6.78;;;4.65;;
45322;SDS011;31382;50.200;8.674;2023-04-08T00:27:24;5.10;;;3.88;;
45322;SDS011;31382;50.200;8.674;2023-04-08T00:32:26;6.50;;;3.33;;
45322;SDS011;31382;50.200;8.674;2023-04-08T00:37:28;4.78;;;2.65;;
45322;SDS011;31382;50.200;8.674;2023-04-08T00:42:30;5.40;;;3.67;;
45322;SDS011;31382;50.200;8.674;2023-04-08T00:47:31;4.45;;;3.25;;
45322;SDS011;31382;50.200;8.674;2023-04-08T00:52:32;5.82;;;3.45;;
45322;SDS011;31382;50.200;8.674;2023-04-08T00:57:34;7.15;;;4.38;;
45322;SDS011;31382;50.200;8.674;2023-04-08T01:07:47;8.77;;;4.55;;
45322;SDS011;31382;50.200;8.674;2023-04-08T01:13:08;9.38;;;5.43;;
45322;SDS011;31382;50.200;8.674;2023-04-08T01:18:12;9.50;;;6.30;;
45322;SDS011;31382;50.200;8.674;2023-04-08T01:28:59;10.20;;;6.78;;
45322;SDS011;31382;50.200;8.674;2023-04-08T01:34:03;8.02;;;5.85;;
45322;SDS011;31382;50.200;8.674;2023-04-08T01:39:06;9.70;;;6.72;;
45322;SDS011;31382;50.200;8.674;2023-04-08T01:44:08;10.90;;;6.72;;
45322;SDS011;31382;50.200;8.674;2023-04-08T01:49:11;11.43;;;7.32;;
45322;SDS011;31382;50.200;8.674;2023-04-08T01:54:14;11.35;;;7.05;;
45322;SDS011;31382;50.200;8.674;2023-04-08T01:59:16;10.13;;;6.82;;
45322;SDS011;31382;50.200;8.674;2023-04-08T02:04:21;11.32;;;7.22;;
45322;SDS011;31382;50.200;8.674;2023-04-08T02:09:23;10.13;;;7.53;;
45322;SDS011;31382;50.200;8.674;2023-04-08T02:14:25;12.40;;;7.57;;
45322;SDS011;31382;50.200;8.674;2023-04-08T02:19:32;13.23;;;8.18;;
45322;SDS011;31382;50.200;8.674;2023-04-08T02:24:44;11.15;;;7.93;;
45322;SDS011;31382;50.200;8.674;2023-04-08T02:29:47;9.60;;;6.72;;
45322;SDS011;31382;50.200;8.674;2023-04-08T02:34:50;10.52;;;6.20;;
45322;SDS011;31382;50.200;8.674;2023-04-08T02:39:52;9.13;;;6.63;;
45322;SDS011;31382;50.200;8.674;2023-04-08T02:44:54;11.68;;;7.38;;
45322;SDS011;31382;50.200;8.674;2023-04-08T02:49:57;9.50;;;6.57;;
45322;SDS011;31382;50.200;8.674;2023-04-08T02:54:58;8.52;;;6.00;;
45322;SDS011;31382;50.200;8.674;2023-04-08T02:59:59;10.75;;;6.60;;
45322;SDS011;31382;50.200;8.674;2023-04-08T03:05:01;9.68;;;5.70;;
45322;SDS011;31382;50.200;8.674;2023-04-08T03:10:03;7.45;;;5.60;;
45322;SDS011;31382;50.200;8.674;2023-04-08T03:15:05;8.55;;;6.57;;
45322;SDS011;31382;50.200;8.674;2023-04-08T03:20:08;9.20;;;6.35;;
45322;SDS011;31382;50.200;8.674;2023-04-08T03:25:10;9.45;;;6.10;;
45322;SDS011;31382;50.200;8.674;2023-04-08T03:30:12;7.55;;;5.47;;
45322;SDS011;31382;50.200;8.674;2023-04-08T03:35:13;8.95;;;6.20;;
45322;SDS011;31382;50.200;8.674;2023-04-08T03:40:15;7.90;;;4.95;;
45322;SDS011;31382;50.200;8.674;2023-04-08T03:45:16;6.90;;;5.07;;
45322;SDS011;31382;50.200;8.674;2023-04-08T03:50:18;8.45;;;5.90;;
45322;SDS011;31382;50.200;8.674;2023-04-08T03:55:19;8.45;;;5.72;;
45322;SDS011;31382;50.200;8.674;2023-04-08T04:00:20;7.93;;;5.25;;
45322;SDS011;31382;50.200;8.674;2023-04-08T04:05:22;6.90;;;5.13;;
45322;SDS011;31382;50.200;8.674;2023-04-08T04:10:23;9.40;;;5.10;;
45322;SDS011;31382;50.200;8.674;2023-04-08T04:15:25;7.57;;;5.05;;
45322;SDS011;31382;50.200;8.674;2023-04-08T04:20:26;7.88;;;5.28;;
45322;SDS011;31382;50.200;8.674;2023-04-08T04:25:30;7.13;;;4.78;;
45322;SDS011;31382;50.200;8.674;2023-04-08T04:30:31;6.63;;;5.10;;
45322;SDS011;31382;50.200;8.674;2023-04-08T04:35:33;9.00;;;6.22;;
45322;SDS011;31382;50.200;8.674;2023-04-08T04:40:35;7.88;;;5.10;;
45322;SDS011;31382;50.200;8.674;2023-04-08T04:45:36;8.40;;;5.82;;
45322;SDS011;31382;50.200;8.674;2023-04-08T04:50:38;7.63;;;5.28;;
45322;SDS011;31382;50.200;8.674;2023-04-08T04:55:39;11.30;;;6.25;;
45322;SDS011;31382;50.200;8.674;2023-04-08T05:00:41;8.95;;;5.65;;
45322;SDS011;31382;50.200;8.674;2023-04-08T05:05:42;8.93;;;6.15;;
45322;SDS011;31382;50.200;8.674;2023-04-08T05:10:44;12.00;;;8.07;;
45322;SDS011;31382;50.200;8.674;2023-04-08T05:15:45;13.00;;;7.95;;
45322;SDS011;31382;50.200;8.674;2023-04-08T05:20:47;9.45;;;5.93;;
45322;SDS011;31382;50.200;8.674;2023-04-08T05:25:48;11.98;;;6.05;;
45322;SDS011;31382;50.200;8.674;2023-04-08T05:30:50;8.48;;;5.88;;
45322;SDS011;31382;50.200;8.674;2023-04-08T05:35:52;15.27;;;7.28;;
45322;SDS011;31382;50.200;8.674;2023-04-08T05:40:54;8.90;;;6.43;;
45322;SDS011;31382;50.200;8.674;2023-04-08T05:45:55;8.68;;;5.63;;
45322;SDS011;31382;50.200;8.674;2023-04-08T05:50:57;11.07;;;6.95;;
45322;SDS011;31382;50.200;8.674;2023-04-08T05:55:58;10.10;;;6.82;;
45322;SDS011;31382;50.200;8.674;2023-04-08T06:00:59;9.75;;;6.80;;
45322;SDS011;31382;50.200;8.674;2023-04-08T06:06:01;12.07;;;7.18;;
45322;SDS011;31382;50.200;8.674;2023-04-08T06:11:02;11.77;;;7.25;;
45322;SDS011;31382;50.200;8.674;2023-04-08T06:16:09;11.68;;;6.90;;
45322;SDS011;31382;50.200;8.674;2023-04-08T06:21:11;10.13;;;6.88;;
45322;SDS011;31382;50.200;8.674;2023-04-08T06:26:12;10.23;;;6.80;;
45322;SDS011;31382;50.200;8.674;2023-04-08T06:36:30;13.15;;;7.20;;
45322;SDS011;31382;50.200;8.674;2023-04-08T06:41:35;12.50;;;7.32;;
45322;SDS011;31382;50.200;8.674;2023-04-08T06:46:43;13.23;;;8.20;;
45322;SDS011;31382;50.200;8.674;2023-04-08T06:51:44;12.90;;;7.72;;
45322;SDS011;31382;50.200;8.674;2023-04-08T06:56:48;10.30;;;7.47;;
45322;SDS011;31382;50.200;8.674;2023-04-08T07:01:49;10.55;;;7.25;;
45322;SDS011;31382;50.200;8.674;2023-04-08T07:06:51;11.95;;;7.00;;
45322;SDS011;31382;50.200;8.674;2023-04-08T07:11:53;11.30;;;8.38;;
45322;SDS011;31382;50.200;8.674;2023-04-08T07:16:54;9.95;;;7.35;;
45322;SDS011;31382;50.200;8.674;2023-04-08T07:21:56;11.63;;;7.63;;
45322;SDS011;31382;50.200;8.674;2023-04-08T07:26:58;10.23;;;7.00;;
45322;SDS011;31382;50.200;8.674;2023-04-08T07:31:59;10.68;;;6.63;;
45322;SDS011;31382;50.200;8.674;2023-04-08T07:37:00;9.10;;;6.43;;
45322;SDS011;31382;50.200;8.674;2023-04-08T07:42:02;10.07;;;6.80;;
45322;SDS011;31382;50.200;8.674;2023-04-08T07:47:04;10.63;;;7.00;;
45322;SDS011;31382;50.200;8.674;2023-04-08T07:52:05;10.60;;;6.80;;
45322;SDS011;31382;50.200;8.674;2023-04-08T07:57:07;10.75;;;6.90;;
45322;SDS011;31382;50.200;8.674;2023-04-08T08:02:08;9.90;;;7.60;;
45322;SDS011;31382;50.200;8.674;2023-04-08T08:07:09;10.55;;;7.70;;
45322;SDS011;31382;50.200;8.674;2023-04-08T08:12:11;14.25;;;9.65;;
45322;SDS011;31382;50.200;8.674;2023-04-08T08:17:12;12.25;;;7.85;;
45322;SDS011;31382;50.200;8.674;2023-04-08T08:22:14;10.32;;;7.40;;
45322;SDS011;31382;50.200;8.674;2023-04-08T08:27:16;9.52;;;7.47;;
45322;SDS011;31382;50.200;8.674;2023-04-08T08:32:17;9.43;;;7.47;;
45322;SDS011;31382;50.200;8.674;2023-04-08T08:37:19;9.70;;;7.10;;
45322;SDS011;31382;50.200;8.674;2023-04-08T08:42:24;11.30;;;8.15;;
45322;SDS011;31382;50.200;8.674;2023-04-08T08:47:26;10.90;;;7.97;;
45322;SDS011;31382;50.200;8.674;2023-04-08T09:03:29;9.52;;;6.68;;
45322;SDS011;31382;50.200;8.674;2023-04-08T09:08:32;11.70;;;7.32;;
45322;SDS011;31382;50.200;8.674;2023-04-08T09:13:34;10.10;;;6.32;;
45322;SDS011;31382;50.200;8.674;2023-04-08T09:18:39;10.07;;;6.82;;
45322;SDS011;31382;50.200;8.674;2023-04-08T09:23:48;9.23;;;6.13;;
45322;SDS011;31382;50.200;8.674;2023-04-08T09:29:07;8.63;;;6.15;;
45322;SDS011;31382;50.200;8.674;2023-04-08T09:34:27;5.88;;;4.40;;
45322;SDS011;31382;50.200;8.674;2023-04-08T09:39:32;7.07;;;4.47;;
45322;SDS011;31382;50.200;8.674;2023-04-08T09:44:34;9.25;;;4.70;;
45322;SDS011;31382;50.200;8.674;2023-04-08T09:49:45;10.38;;;4.93;;
45322;SDS011;31382;50.200;8.674;2023-04-08T09:54:53;11.15;;;4.60;;
45322;SDS011;31382;50.200;8.674;2023-04-08T10:10:33;6.33;;;4.37;;
45322;SDS011;31382;50.200;8.674;2023-04-08T10:15:37;8.30;;;4.70;;
45322;SDS011;31382;50.200;8.674;2023-04-08T10:20:41;7.95;;;4.40;;
45322;SDS011;31382;50.200;8.674;2023-04-08T10:25:43;7.88;;;4.47;;
45322;SDS011;31382;50.200;8.674;2023-04-08T10:30:46;8.27;;;4.00;;
45322;SDS011;31382;50.200;8.674;2023-04-08T10:35:50;6.28;;;3.70;;
45322;SDS011;31382;50.200;8.674;2023-04-08T10:40:53;7.60;;;4.20;;
45322;SDS011;31382;50.200;8.674;2023-04-08T10:45:55;9.93;;;3.97;;
45322;SDS011;31382;50.200;8.674;2023-04-08T10:51:03;6.68;;;3.80;;
45322;SDS011;31382;50.200;8.674;2023-04-08T10:56:06;5.90;;;3.83;;
45322;SDS011;31382;50.200;8.674;2023-04-08T11:01:17;6.45;;;4.43;;
45322;SDS011;31382;50.200;8.674;2023-04-08T11:06:19;5.25;;;3.92;;
45322;SDS011;31382;50.200;8.674;2023-04-08T11:11:21;7.45;;;3.97;;
45322;SDS011;31382;50.200;8.674;2023-04-08T11:16:23;7.15;;;4.75;;
45322;SDS011;31382;50.200;8.674;2023-04-08T11:21:27;10.00;;;4.68;;
45322;SDS011;31382;50.200;8.674;2023-04-08T11:26:30;6.43;;;4.50;;
45322;SDS011;31382;50.200;8.674;2023-04-08T11:31:31;5.82;;;4.05;;
45322;SDS011;31382;50.200;8.674;2023-04-08T11:36:34;8.60;;;4.68;;
45322;SDS011;31382;50.200;8.674;2023-04-08T11:41:37;6.78;;;4.53;;
45322;SDS011;31382;50.200;8.674;2023-04-08T11:46:39;6.47;;;4.22;;
45322;SDS011;31382;50.200;8.674;2023-04-08T11:51:58;7.20;;;4.25;;
45322;SDS011;31382;50.200;8.674;2023-04-08T11:57:00;7.15;;;5.15;;
45322;SDS011;31382;50.200;8.674;2023-04-08T12:02:03;9.63;;;4.40;;
45322;SDS011;31382;50.200;8.674;2023-04-08T12:07:05;6.80;;;4.03;;
45322;SDS011;31382;50.200;8.674;2023-04-08T12:12:06;7.25;;;4.10;;
45322;SDS011;31382;50.200;8.674;2023-04-08T12:17:07;6.30;;;4.60;;
45322;SDS011;31382;50.200;8.674;2023-04-08T12:22:09;7.30;;;4.93;;
45322;SDS011;31382;50.200;8.674;2023-04-08T12:27:10;8.68;;;5.45;;
45322;SDS011;31382;50.200;8.674;2023-04-08T12:32:11;8.15;;;4.78;;
45322;SDS011;31382;50.200;8.674;2023-04-08T12:37:13;6.28;;;4.88;;
45322;SDS011;31382;50.200;8.674;2023-04-08T12:42:15;7.40;;;5.20;;
45322;SDS011;31382;50.200;8.674;2023-04-08T12:47:16;7.88;;;5.28;;
45322;SDS011;31382;50.200;8.674;2023-04-08T12:52:18;8.68;;;4.95;;
45322;SDS011;31382;50.200;8.674;2023-04-08T12:57:19;7.60;;;4.70;;
45322;SDS011;31382;50.200;8.674;2023-04-08T13:02:21;8.25;;;5.50;;
45322;SDS011;31382;50.200;8.674;2023-04-08T13:07:23;6.97;;;4.85;;
45322;SDS011;31382;50.200;8.674;2023-04-08T13:12:24;6.38;;;4.20;;
45322;SDS011;31382;50.200;8.674;2023-04-08T13:17:25;7.03;;;4.85;;
45322;SDS011;31382;50.200;8.674;2023-04-08T13:22:28;5.53;;;4.35;;
45322;SDS011;31382;50.200;8.674;2023-04-08T13:27:29;6.22;;;5.03;;
45322;SDS011;31382;50.200;8.674;2023-04-08T13:32:30;5.82;;;4.25;;
45322;SDS011;31382;50.200;8.674;2023-04-08T13:37:32;6.38;;;4.93;;
45322;SDS011;31382;50.200;8.674;2023-04-08T13:42:33;8.35;;;4.88;;
45322;SDS011;31382;50.200;8.674;2023-04-08T13:47:34;5.78;;;4.18;;
45322;SDS011;31382;50.200;8.674;2023-04-08T13:52:38;7.70;;;4.40;;
45322;SDS011;31382;50.200;8.674;2023-04-08T13:57:39;5.75;;;4.50;;
45322;SDS011;31382;50.200;8.674;2023-04-08T14:02:41;6.90;;;4.78;;
45322;SDS011;31382;50.200;8.674;2023-04-08T14:07:42;5.43;;;4.38;;
45322;SDS011;31382;50.200;8.674;2023-04-08T14:12:43;7.60;;;5.38;;
45322;SDS011;31382;50.200;8.674;2023-04-08T14:17:46;9.50;;;5.82;;
45322;SDS011;31382;50.200;8.674;2023-04-08T14:22:48;7.47;;;4.68;;
45322;SDS011;31382;50.200;8.674;2023-04-08T14:27:49;6.90;;;5.43;;
45322;SDS011;31382;50.200;8.674;2023-04-08T14:32:59;7.32;;;5.32;;
45322;SDS011;31382;50.200;8.674;2023-04-08T14:38:01;9.00;;;6.55;;
45322;SDS011;31382;50.200;8.674;2023-04-08T14:43:02;9.98;;;7.00;;
45322;SDS011;31382;50.200;8.674;2023-04-08T14:48:04;9.38;;;7.35;;
45322;SDS011;31382;50.200;8.674;2023-04-08T14:53:05;10.48;;;7.35;;
45322;SDS011;31382;50.200;8.674;2023-04-08T14:58:07;9.38;;;6.63;;
45322;SDS011;31382;50.200;8.674;2023-04-08T15:03:09;8.60;;;5.57;;
45322;SDS011;31382;50.200;8.674;2023-04-08T15:08:13;9.90;;;5.93;;
45322;SDS011;31382;50.200;8.674;2023-04-08T15:13:15;8.88;;;6.45;;
45322;SDS011;31382;50.200;8.674;2023-04-08T15:18:17;9.13;;;5.47;;
45322;SDS011;31382;50.200;8.674;2023-04-08T15:23:18;9.13;;;6.60;;
45322;SDS011;31382;50.200;8.674;2023-04-08T15:28:19;8.48;;;5.55;;
45322;SDS011;31382;50.200;8.674;2023-04-08T15:33:21;7.55;;;5.68;;
45322;SDS011;31382;50.200;8.674;2023-04-08T15:38:22;6.82;;;5.75;;
45322;SDS011;31382;50.200;8.674;2023-04-08T15:43:23;10.75;;;6.28;;
45322;SDS011;31382;50.200;8.674;2023-04-08T15:48:25;10.43;;;6.80;;
45322;SDS011;31382;50.200;8.674;2023-04-08T15:53:26;10.65;;;6.95;;
45322;SDS011;31382;50.200;8.674;2023-04-08T15:58:28;11.88;;;7.30;;
45322;SDS011;31382;50.200;8.674;2023-04-08T16:03:29;10.52;;;7.13;;
45322;SDS011;31382;50.200;8.674;2023-04-08T16:08:32;12.00;;;7.40;;
45322;SDS011;31382;50.200;8.674;2023-04-08T16:13:34;9.88;;;7.15;;
45322;SDS011;31382;50.200;8.674;2023-04-08T16:18:39;10.15;;;7.65;;
45322;SDS011;31382;50.200;8.674;2023-04-08T16:23:41;13.27;;;8.32;;
45322;SDS011;31382;50.200;8.674;2023-04-08T16:28:43;11.07;;;7.28;;
45322;SDS011;31382;50.200;8.674;2023-04-08T16:33:44;11.50;;;7.85;;
45322;SDS011;31382;50.200;8.674;2023-04-08T16:38:45;11.48;;;7.65;;
45322;SDS011;31382;50.200;8.674;2023-04-08T16:43:47;11.75;;;7.40;;
45322;SDS011;31382;50.200;8.674;2023-04-08T16:48:49;10.07;;;6.57;;
45322;SDS011;31382;50.200;8.674;2023-04-08T16:53:50;11.07;;;6.90;;
45322;SDS011;31382;50.200;8.674;2023-04-08T16:58:52;9.10;;;5.45;;
45322;SDS011;31382;50.200;8.674;2023-04-08T17:03:53;8.50;;;4.93;;
45322;SDS011;31382;50.200;8.674;2023-04-08T17:08:56;7.75;;;5.53;;
45322;SDS011;31382;50.200;8.674;2023-04-08T17:13:57;3.85;;;3.08;;
45322;SDS011;31382;50.200;8.674;2023-04-08T17:18:59;4.28;;;3.17;;
45322;SDS011;31382;50.200;8.674;2023-04-08T17:24:00;5.15;;;2.33;;
45322;SDS011;31382;50.200;8.674;2023-04-08T17:29:02;2.08;;;1.67;;
45322;SDS011;31382;50.200;8.674;2023-04-08T17:34:03;2.47;;;1.77;;
45322;SDS011;31382;50.200;8.674;2023-04-08T17:39:05;2.63;;;1.70;;
45322;SDS011;31382;50.200;8.674;2023-04-08T17:44:06;2.50;;;1.60;;
45322;SDS011;31382;50.200;8.674;2023-04-08T17:49:08;3.83;;;1.48;;
45322;SDS011;31382;50.200;8.674;2023-04-08T17:54:12;2.67;;;1.60;;
45322;SDS011;31382;50.200;8.674;2023-04-08T17:59:14;2.25;;;1.52;;
45322;SDS011;31382;50.200;8.674;2023-04-08T18:04:15;3.42;;;1.55;;
45322;SDS011;31382;50.200;8.674;2023-04-08T18:09:17;2.72;;;2.00;;
45322;SDS011;31382;50.200;8.674;2023-04-08T18:14:19;3.08;;;1.90;;
45322;SDS011;31382;50.200;8.674;2023-04-08T18:19:20;2.65;;;1.60;;
45322;SDS011;31382;50.200;8.674;2023-04-08T18:24:21;3.25;;;1.98;;
45322;SDS011;31382;50.200;8.674;2023-04-08T18:29:23;2.60;;;2.08;;
45322;SDS011;31382;50.200;8.674;2023-04-08T18:34:25;2.97;;;2.40;;
45322;SDS011;31382;50.200;8.674;2023-04-08T18:39:26;8.15;;;2.42;;
45322;SDS011;31382;50.200;8.674;2023-04-08T18:44:28;3.00;;;2.63;;
45322;SDS011;31382;50.200;8.674;2023-04-08T18:49:29;5.30;;;2.25;;
45322;SDS011;31382;50.200;8.674;2023-04-08T18:54:34;3.10;;;2.50;;
45322;SDS011;31382;50.200;8.674;2023-04-08T18:59:35;4.05;;;2.50;;
45322;SDS011;31382;50.200;8.674;2023-04-08T19:04:37;3.60;;;2.00;;
45322;SDS011;31382;50.200;8.674;2023-04-08T19:09:38;4.90;;;2.50;;
45322;SDS011;31382;50.200;8.674;2023-04-08T19:14:40;5.20;;;2.70;;
45322;SDS011;31382;50.200;8.674;2023-04-08T19:19:42;6.80;;;2.75;;
45322;SDS011;31382;50.200;8.674;2023-04-08T19:24:43;4.88;;;3.33;;
45322;SDS011;31382;50.200;8.674;2023-04-08T19:29:45;4.60;;;2.67;;
45322;SDS011;31382;50.200;8.674;2023-04-08T19:34:46;3.83;;;2.58;;
45322;SDS011;31382;50.200;8.674;2023-04-08T19:39:48;3.33;;;2.38;;
45322;SDS011;31382;50.200;8.674;2023-04-08T19:44:49;4.00;;;2.63;;
45322;SDS011;31382;50.200;8.674;2023-04-08T19:49:51;6.70;;;3.28;;
45322;SDS011;31382;50.200;8.674;2023-04-08T19:54:53;5.13;;;2.95;;
45322;SDS011;31382;50.200;8.674;2023-04-08T19:59:54;5.32;;;3.10;;
45322;SDS011;31382;50.200;8.674;2023-04-08T20:04:55;4.15;;;2.65;;
45322;SDS011;31382;50.200;8.674;2023-04-08T20:09:57;5.60;;;3.45;;
45322;SDS011;31382;50.200;8.674;2023-04-08T20:14:59;6.25;;;3.70;;
45322;SDS011;31382;50.200;8.674;2023-04-08T20:20:01;5.93;;;3.72;;
45322;SDS011;31382;50.200;8.674;2023-04-08T20:25:03;7.22;;;4.50;;
45322;SDS011;31382;50.200;8.674;2023-04-08T20:30:05;8.30;;;4.15;;
45322;SDS011;31382;50.200;8.674;2023-04-08T20:35:07;7.22;;;4.68;;
45322;SDS011;31382;50.200;8.674;2023-04-08T20:40:09;7.75;;;4.30;;
45322;SDS011;31382;50.200;8.674;2023-04-08T20:45:11;9.13;;;4.85;;
45322;SDS011;31382;50.200;8.674;2023-04-08T20:50:12;7.30;;;4.55;;
45322;SDS011;31382;50.200;8.674;2023-04-08T20:55:13;8.35;;;4.57;;
45322;SDS011;31382;50.200;8.674;2023-04-08T21:00:15;9.27;;;5.03;;
45322;SDS011;31382;50.200;8.674;2023-04-08T21:05:17;10.70;;;5.68;;
45322;SDS011;31382;50.200;8.674;2023-04-08T21:10:18;10.55;;;5.35;;
45322;SDS011;31382;50.200;8.674;2023-04-08T21:15:20;7.15;;;4.38;;
45322;SDS011;31382;50.200;8.674;2023-04-08T21:20:22;8.68;;;4.93;;
45322;SDS011;31382;50.200;8.674;2023-04-08T21:25:23;8.38;;;4.90;;
45322;SDS011;31382;50.200;8.674;2023-04-08T21:30:26;9.52;;;4.75;;
45322;SDS011;31382;50.200;8.674;2023-04-08T21:35:28;8.23;;;4.95;;
45322;SDS011;31382;50.200;8.674;2023-04-08T21:40:29;7.35;;;5.07;;
45322;SDS011;31382;50.200;8.674;2023-04-08T21:45:30;8.40;;;4.95;;
45322;SDS011;31382;50.200;8.674;2023-04-08T21:50:32;7.85;;;4.75;;
45322;SDS011;31382;50.200;8.674;2023-04-08T21:55:33;8.02;;;4.53;;
45322;SDS011;31382;50.200;8.674;2023-04-08T22:00:34;8.65;;;5.30;;
45322;SDS011;31382;50.200;8.674;2023-04-08T22:05:36;13.13;;;5.35;;
45322;SDS011;31382;50.200;8.674;2023-04-08T22:10:37;6.88;;;4.05;;
45322;SDS011;31382;50.200;8.674;2023-04-08T22:15:38;5.20;;;3.30;;
45322;SDS011;31382;50.200;8.674;2023-04-08T22:20:40;7.28;;;4.25;;
45322;SDS011;31382;50.200;8.674;2023-04-08T22:25:41;7.55;;;3.95;;
45322;SDS011;31382;50.200;8.674;2023-04-08T22:30:43;6.80;;;3.53;;
45322;SDS011;31382;50.200;8.674;2023-04-08T22:35:44;8.05;;;4.07;;
45322;SDS011;31382;50.200;8.674;2023-04-08T22:40:46;8.20;;;4.22;;
45322;SDS011;31382;50.200;8.674;2023-04-08T22:45:47;8.38;;;4.95;;
45322;SDS011;31382;50.200;8.674;2023-04-08T22:50:49;6.57;;;4.75;;
45322;SDS011;31382;50.200;8.674;2023-04-08T22:55:50;9.57;;;5.28;;
45322;SDS011;31382;50.200;8.674;2023-04-08T23:00:51;10.00;;;4.72;;
45322;SDS011;31382;50.200;8.674;2023-04-08T23:05:53;9.65;;;5.40;;
45322;SDS011;31382;50.200;8.674;2023-04-08T23:10:54;8.45;;;4.57;;
45322;SDS011;31382;50.200;8.674;2023-04-08T23:15:55;8.70;;;4.75;;
45322;SDS011;31382;50.200;8.674;2023-04-08T23:20:57;8.43;;;4.53;;
45322;SDS011;31382;50.200;8.674;2023-04-08T23:25:58;10.95;;;4.80;;
45322;SDS011;31382;50.200;8.674;2023-04-08T23:31:02;10.77;;;5.43;;
45322;SDS011;31382;50.200;8.674;2023-04-08T23:36:07;9.32;;;4.78;;
45322;SDS011;31382;50.200;8.674;2023-04-08T23:41:09;11.27;;;5.53;;
45322;SDS011;31382;50.200;8.674;2023-04-08T23:46:11;8.77;;;4.65;;
45322;SDS011;31382;50.200;8.674;2023-04-08T23:51:12;11.07;;;5.07;;
45322;SDS011;31382;50.200;8.674;2023-04-08T23:56:13;11.68;;;5.57;;
